HVN1820 VVPQ-VVTS
Flight info
| Callsign | HVN1820 |
|---|---|
| Flight time | 0h 38m |
| Altitude | 31000 |
| Route | TUNPO2A TUNPO W8 RG W16 TRN TRN5B |
| Aircraft | A321/M-SDE3FGHIRWY/LB1 |
Departure
| Time | 2026-04-21 16:42 |
|---|---|
| Airport | Phú Quốc International Airport (VVPQ) |
Arrival
| Time | 2026-04-21 17:21 |
|---|---|
| Airport | Tan Son Nhat International Airport (VVTS) |
| Time | Latitude | Longitude | Altitude | Speed | Heading |
|---|---|---|---|---|---|
| 2026-04-21 16:18 | 10.16413 | 103.99912 | 28 ft | 0 kts | 186° |
| 2026-04-21 16:31 | 10.16422 | 103.99913 | 27 ft | 4 kts | 185° |
| 2026-04-21 16:31 | 10.16449 | 103.99914 | 27 ft | 4 kts | 177° |
| 2026-04-21 16:31 | 10.16476 | 103.99911 | 27 ft | 4 kts | 165° |
| 2026-04-21 16:32 | 10.16499 | 103.99900 | 27 ft | 4 kts | 133° |
| 2026-04-21 16:32 | 10.16507 | 103.99888 | 27 ft | 0 kts | 96° |
| 2026-04-21 16:38 | 10.16506 | 103.99897 | 27 ft | 4 kts | 96° |
| 2026-04-21 16:38 | 10.16500 | 103.99963 | 28 ft | 10 kts | 95° |
| 2026-04-21 16:38 | 10.16493 | 104.00031 | 28 ft | 10 kts | 94° |
| 2026-04-21 16:38 | 10.16487 | 104.00106 | 28 ft | 11 kts | 86° |
| 2026-04-21 16:39 | 10.16518 | 104.00139 | 28 ft | 10 kts | 19° |
| 2026-04-21 16:39 | 10.16593 | 104.00147 | 28 ft | 11 kts | 4° |
| 2026-04-21 16:39 | 10.16675 | 104.00159 | 28 ft | 12 kts | 9° |
| 2026-04-21 16:39 | 10.16721 | 104.00219 | 28 ft | 12 kts | 93° |
| 2026-04-21 16:40 | 10.16712 | 104.00307 | 29 ft | 13 kts | 96° |
| 2026-04-21 16:40 | 10.16703 | 104.00400 | 29 ft | 14 kts | 96° |
| 2026-04-21 16:40 | 10.16693 | 104.00499 | 30 ft | 14 kts | 96° |
| 2026-04-21 16:40 | 10.16683 | 104.00602 | 30 ft | 15 kts | 91° |
| 2026-04-21 16:41 | 10.16758 | 104.00652 | 30 ft | 14 kts | 0° |
| 2026-04-21 16:41 | 10.16845 | 104.00633 | 31 ft | 12 kts | 308° |
| 2026-04-21 16:41 | 10.16866 | 104.00501 | 30 ft | 42 kts | 276° |
| 2026-04-21 16:41 | 10.16923 | 103.99946 | 28 ft | 113 kts | 276° |
| 2026-04-21 16:42 | 10.17022 | 103.98945 | 30 ft | 169 kts | 276° |
| 2026-04-21 16:42 | 10.17139 | 103.97716 | 526 ft | 175 kts | 276° |
| 2026-04-21 16:42 | 10.17252 | 103.96493 | 1275 ft | 172 kts | 271° |
| 2026-04-21 16:42 | 10.17372 | 103.95280 | 1932 ft | 173 kts | 272° |
| 2026-04-21 16:43 | 10.17498 | 103.93998 | 2212 ft | 193 kts | 272° |
| 2026-04-21 16:43 | 10.17638 | 103.92562 | 2415 ft | 215 kts | 273° |
| 2026-04-21 16:43 | 10.17795 | 103.90972 | 2588 ft | 237 kts | 274° |
| 2026-04-21 16:43 | 10.17827 | 103.89291 | 3094 ft | 243 kts | 254° |
| 2026-04-21 16:44 | 10.16998 | 103.87836 | 3669 ft | 241 kts | 216° |
| 2026-04-21 16:44 | 10.15485 | 103.87147 | 4280 ft | 242 kts | 189° |
| 2026-04-21 16:44 | 10.13794 | 103.86941 | 4906 ft | 247 kts | 180° |
| 2026-04-21 16:44 | 10.12055 | 103.86881 | 5479 ft | 253 kts | 180° |
| 2026-04-21 16:45 | 10.10265 | 103.86832 | 6066 ft | 260 kts | 180° |
| 2026-04-21 16:45 | 10.08486 | 103.86999 | 6638 ft | 262 kts | 157° |
| 2026-04-21 16:45 | 10.06983 | 103.88011 | 7202 ft | 261 kts | 129° |
| 2026-04-21 16:45 | 10.06148 | 103.89669 | 7514 ft | 272 kts | 98° |
| 2026-04-21 16:46 | 10.05946 | 103.91612 | 8028 ft | 279 kts | 94° |
| 2026-04-21 16:46 | 10.05765 | 103.93587 | 8635 ft | 283 kts | 95° |
| 2026-04-21 16:46 | 10.05578 | 103.95583 | 9262 ft | 286 kts | 95° |
| 2026-04-21 16:46 | 10.05388 | 103.97571 | 9895 ft | 287 kts | 96° |
| 2026-04-21 16:47 | 10.05186 | 103.99630 | 10164 ft | 303 kts | 96° |
| 2026-04-21 16:47 | 10.04970 | 104.01826 | 10287 ft | 322 kts | 96° |
| 2026-04-21 16:47 | 10.04739 | 104.04153 | 10407 ft | 341 kts | 96° |
| 2026-04-21 16:47 | 10.04493 | 104.06615 | 10505 ft | 358 kts | 96° |
| 2026-04-21 16:48 | 10.04235 | 104.09189 | 10671 ft | 372 kts | 96° |
| 2026-04-21 16:48 | 10.03975 | 104.11787 | 11093 ft | 376 kts | 96° |
| 2026-04-21 16:48 | 10.03712 | 104.14443 | 11589 ft | 379 kts | 96° |
| 2026-04-21 16:48 | 10.03445 | 104.17131 | 12040 ft | 384 kts | 96° |
| 2026-04-21 16:49 | 10.03175 | 104.19839 | 12517 ft | 387 kts | 95° |
| 2026-04-21 16:49 | 10.02906 | 104.22537 | 13010 ft | 390 kts | 96° |
| 2026-04-21 16:49 | 10.02634 | 104.25291 | 13476 ft | 394 kts | 96° |
| 2026-04-21 16:49 | 10.02359 | 104.28072 | 13921 ft | 397 kts | 95° |
| 2026-04-21 16:50 | 10.02087 | 104.30870 | 14385 ft | 400 kts | 94° |
| 2026-04-21 16:50 | 10.02128 | 104.33697 | 14805 ft | 402 kts | 83° |
| 2026-04-21 16:50 | 10.02568 | 104.36515 | 15292 ft | 404 kts | 80° |
| 2026-04-21 16:50 | 10.03029 | 104.39296 | 15760 ft | 406 kts | 81° |
| 2026-04-21 16:51 | 10.03495 | 104.42135 | 16215 ft | 408 kts | 81° |
| 2026-04-21 16:51 | 10.03962 | 104.44991 | 16721 ft | 410 kts | 81° |
| 2026-04-21 16:51 | 10.04428 | 104.47853 | 17150 ft | 413 kts | 81° |
| 2026-04-21 16:51 | 10.04897 | 104.50743 | 17600 ft | 415 kts | 81° |
| 2026-04-21 16:52 | 10.05360 | 104.53608 | 18034 ft | 418 kts | 81° |
| 2026-04-21 16:52 | 10.05824 | 104.56539 | 18400 ft | 420 kts | 82° |
| 2026-04-21 16:52 | 10.05953 | 104.59510 | 18759 ft | 422 kts | 92° |
| 2026-04-21 16:52 | 10.05567 | 104.62478 | 19098 ft | 425 kts | 101° |
| 2026-04-21 16:53 | 10.05006 | 104.65397 | 19442 ft | 427 kts | 100° |
| 2026-04-21 16:53 | 10.04443 | 104.68360 | 19794 ft | 429 kts | 100° |
| 2026-04-21 16:53 | 10.03880 | 104.71342 | 20138 ft | 431 kts | 100° |
| 2026-04-21 16:53 | 10.03316 | 104.74339 | 20481 ft | 432 kts | 100° |
| 2026-04-21 16:54 | 10.02749 | 104.77349 | 20820 ft | 434 kts | 100° |
| 2026-04-21 16:54 | 10.02185 | 104.80335 | 21146 ft | 436 kts | 100° |
| 2026-04-21 16:54 | 10.01611 | 104.83369 | 21477 ft | 437 kts | 99° |
| 2026-04-21 16:54 | 10.01038 | 104.86403 | 21794 ft | 439 kts | 99° |
| 2026-04-21 16:55 | 10.00463 | 104.89457 | 22108 ft | 441 kts | 99° |
| 2026-04-21 16:55 | 9.99888 | 104.92525 | 22419 ft | 442 kts | 99° |
| 2026-04-21 16:55 | 9.99314 | 104.95560 | 22705 ft | 444 kts | 99° |
| 2026-04-21 16:55 | 9.98727 | 104.98653 | 23003 ft | 446 kts | 99° |
| 2026-04-21 16:56 | 9.98134 | 105.01767 | 23300 ft | 448 kts | 99° |
| 2026-04-21 16:56 | 9.97542 | 105.04875 | 23582 ft | 449 kts | 99° |
| 2026-04-21 16:56 | 9.96956 | 105.07956 | 23823 ft | 451 kts | 99° |
| 2026-04-21 16:56 | 9.96437 | 105.11099 | 24060 ft | 452 kts | 94° |
| 2026-04-21 16:57 | 9.96381 | 105.14282 | 24293 ft | 452 kts | 85° |
| 2026-04-21 16:57 | 9.96833 | 105.17437 | 24525 ft | 452 kts | 77° |
| 2026-04-21 16:57 | 9.97517 | 105.20571 | 24759 ft | 454 kts | 77° |
| 2026-04-21 16:57 | 9.98200 | 105.23709 | 24993 ft | 455 kts | 77° |
| 2026-04-21 16:58 | 9.98876 | 105.26820 | 25229 ft | 457 kts | 76° |
| 2026-04-21 16:58 | 9.99561 | 105.29971 | 25452 ft | 458 kts | 76° |
| 2026-04-21 16:58 | 10.00251 | 105.33139 | 25668 ft | 461 kts | 76° |
| 2026-04-21 16:58 | 10.00943 | 105.36322 | 25902 ft | 462 kts | 76° |
| 2026-04-21 16:59 | 10.01636 | 105.39515 | 26135 ft | 464 kts | 76° |
| 2026-04-21 16:59 | 10.02329 | 105.42716 | 26371 ft | 466 kts | 76° |
| 2026-04-21 16:59 | 10.03023 | 105.45940 | 26603 ft | 467 kts | 76° |
| 2026-04-21 16:59 | 10.03720 | 105.49171 | 26834 ft | 469 kts | 76° |
| 2026-04-21 17:00 | 10.04421 | 105.52410 | 27062 ft | 470 kts | 76° |
| 2026-04-21 17:00 | 10.05112 | 105.55599 | 27380 ft | 468 kts | 76° |
| 2026-04-21 17:00 | 10.05584 | 105.57777 | 27597 ft | 468 kts | 76° |
| 2026-04-21 17:00 | 10.06506 | 105.62044 | 28020 ft | 467 kts | 76° |
| 2026-04-21 17:01 | 10.07201 | 105.65262 | 28354 ft | 466 kts | 76° |
| 2026-04-21 17:01 | 10.07895 | 105.68476 | 28674 ft | 465 kts | 76° |
| 2026-04-21 17:01 | 10.08711 | 105.71655 | 28994 ft | 463 kts | 70° |
| 2026-04-21 17:01 | 10.09759 | 105.74744 | 29302 ft | 462 kts | 70° |
| 2026-04-21 17:02 | 10.10802 | 105.77823 | 29624 ft | 461 kts | 70° |
| 2026-04-21 17:02 | 10.11830 | 105.80870 | 29941 ft | 461 kts | 70° |
| 2026-04-21 17:02 | 10.12869 | 105.83947 | 30225 ft | 460 kts | 70° |
| 2026-04-21 17:02 | 10.13904 | 105.87020 | 30498 ft | 459 kts | 70° |
| 2026-04-21 17:03 | 10.14938 | 105.90089 | 30766 ft | 459 kts | 70° |
| 2026-04-21 17:03 | 10.15970 | 105.93153 | 30879 ft | 458 kts | 69° |
| 2026-04-21 17:03 | 10.17003 | 105.96213 | 30913 ft | 455 kts | 69° |
| 2026-04-21 17:04 | 10.19054 | 106.02290 | 30907 ft | 454 kts | 70° |
| 2026-04-21 17:04 | 10.21098 | 106.08357 | 30903 ft | 454 kts | 70° |
| 2026-04-21 17:05 | 10.23144 | 106.14426 | 30910 ft | 457 kts | 70° |
| 2026-04-21 17:05 | 10.25191 | 106.20512 | 30892 ft | 445 kts | 70° |
| 2026-04-21 17:05 | 10.26295 | 106.23388 | 30769 ft | 430 kts | 62° |
| 2026-04-21 17:06 | 10.27642 | 106.26082 | 30127 ft | 430 kts | 64° |
| 2026-04-21 17:06 | 10.28820 | 106.28905 | 28539 ft | 450 kts | 68° |
| 2026-04-21 17:06 | 10.29881 | 106.31976 | 26923 ft | 470 kts | 71° |
| 2026-04-21 17:06 | 10.30870 | 106.35183 | 25638 ft | 480 kts | 72° |
| 2026-04-21 17:07 | 10.31531 | 106.37382 | 24864 ft | 484 kts | 72° |
| 2026-04-21 17:07 | 10.32870 | 106.41731 | 23475 ft | 488 kts | 71° |
| 2026-04-21 17:07 | 10.33936 | 106.44988 | 22740 ft | 481 kts | 71° |
| 2026-04-21 17:07 | 10.35030 | 106.48181 | 22036 ft | 474 kts | 70° |
| 2026-04-21 17:08 | 10.36108 | 106.51247 | 21841 ft | 456 kts | 70° |
| 2026-04-21 17:08 | 10.37163 | 106.54228 | 21725 ft | 438 kts | 70° |
| 2026-04-21 17:08 | 10.38170 | 106.57087 | 21596 ft | 421 kts | 70° |
| 2026-04-21 17:08 | 10.39131 | 106.59846 | 21473 ft | 407 kts | 70° |
| 2026-04-21 17:09 | 10.40934 | 106.65088 | 21219 ft | 379 kts | 70° |
| 2026-04-21 17:09 | 10.41775 | 106.67540 | 20995 ft | 358 kts | 70° |
| 2026-04-21 17:09 | 10.42585 | 106.69899 | 20430 ft | 349 kts | 70° |
| 2026-04-21 17:10 | 10.43380 | 106.72215 | 19775 ft | 344 kts | 70° |
| 2026-04-21 17:10 | 10.44165 | 106.74500 | 19110 ft | 341 kts | 71° |
| 2026-04-21 17:10 | 10.44944 | 106.76770 | 18422 ft | 339 kts | 71° |
| 2026-04-21 17:10 | 10.45725 | 106.79036 | 17680 ft | 337 kts | 71° |
| 2026-04-21 17:11 | 10.46492 | 106.81261 | 17193 ft | 326 kts | 71° |
| 2026-04-21 17:11 | 10.47215 | 106.83359 | 16881 ft | 313 kts | 71° |
| 2026-04-21 17:11 | 10.47892 | 106.85446 | 16288 ft | 312 kts | 74° |
| 2026-04-21 17:11 | 10.48663 | 106.87520 | 15572 ft | 316 kts | 58° |
| 2026-04-21 17:12 | 10.50101 | 106.89197 | 14980 ft | 315 kts | 37° |
| 2026-04-21 17:12 | 10.52038 | 106.90197 | 14440 ft | 313 kts | 15° |
| 2026-04-21 17:12 | 10.54196 | 106.90434 | 13896 ft | 312 kts | 1° |
| 2026-04-21 17:12 | 10.56344 | 106.90439 | 13310 ft | 311 kts | 0° |
| 2026-04-21 17:13 | 10.58503 | 106.90438 | 12741 ft | 309 kts | 0° |
| 2026-04-21 17:13 | 10.60642 | 106.90436 | 12204 ft | 306 kts | 1° |
| 2026-04-21 17:13 | 10.62772 | 106.90436 | 11675 ft | 303 kts | 1° |
| 2026-04-21 17:13 | 10.64876 | 106.90437 | 11162 ft | 301 kts | 1° |
| 2026-04-21 17:14 | 10.66947 | 106.90441 | 10658 ft | 298 kts | 1° |
| 2026-04-21 17:14 | 10.69015 | 106.90445 | 10149 ft | 296 kts | 1° |
| 2026-04-21 17:14 | 10.71071 | 106.90448 | 9657 ft | 294 kts | 1° |
| 2026-04-21 17:14 | 10.73112 | 106.90450 | 9124 ft | 291 kts | 1° |
| 2026-04-21 17:15 | 10.75136 | 106.90453 | 8619 ft | 288 kts | 1° |
| 2026-04-21 17:15 | 10.77128 | 106.90457 | 8115 ft | 285 kts | 1° |
| 2026-04-21 17:15 | 10.79103 | 106.90462 | 7633 ft | 282 kts | 1° |
| 2026-04-21 17:15 | 10.81033 | 106.90468 | 7156 ft | 279 kts | 1° |
| 2026-04-21 17:16 | 10.82976 | 106.90473 | 6680 ft | 277 kts | 0° |
| 2026-04-21 17:16 | 10.84884 | 106.90332 | 6189 ft | 274 kts | 343° |
| 2026-04-21 17:16 | 10.86516 | 106.89377 | 5688 ft | 272 kts | 314° |
| 2026-04-21 17:16 | 10.87458 | 106.87753 | 5174 ft | 271 kts | 284° |
| 2026-04-21 17:17 | 10.87694 | 106.85858 | 4922 ft | 271 kts | 276° |
| 2026-04-21 17:17 | 10.87960 | 106.83952 | 4887 ft | 274 kts | 279° |
| 2026-04-21 17:17 | 10.88160 | 106.82039 | 4662 ft | 269 kts | 266° |
| 2026-04-21 17:17 | 10.87750 | 106.80201 | 3795 ft | 264 kts | 248° |
| 2026-04-21 17:18 | 10.87071 | 106.78447 | 2765 ft | 265 kts | 244° |
| 2026-04-21 17:18 | 10.86345 | 106.76793 | 2130 ft | 249 kts | 240° |
| 2026-04-21 17:18 | 10.85626 | 106.75261 | 1862 ft | 229 kts | 240° |
| 2026-04-21 17:18 | 10.85003 | 106.73826 | 1588 ft | 213 kts | 243° |
| 2026-04-21 17:19 | 10.84490 | 106.72489 | 1377 ft | 190 kts | 245° |
| 2026-04-21 17:19 | 10.84048 | 106.71320 | 1203 ft | 166 kts | 245° |
| 2026-04-21 17:19 | 10.83647 | 106.70259 | 892 ft | 155 kts | 244° |
| 2026-04-21 17:19 | 10.83248 | 106.69238 | 571 ft | 151 kts | 245° |
| 2026-04-21 17:20 | 10.82877 | 106.68280 | 371 ft | 148 kts | 244° |
| 2026-04-21 17:20 | 10.82500 | 106.67296 | 155 ft | 149 kts | 246° |
| 2026-04-21 17:20 | 10.82137 | 106.66337 | 35 ft | 134 kts | 247° |
| 2026-04-21 17:20 | 10.81856 | 106.65595 | 35 ft | 88 kts | 249° |
| 2026-04-21 17:21 | 10.81704 | 106.65194 | 39 ft | 28 kts | 243° |
| 2026-04-21 17:21 | 10.81595 | 106.65053 | 40 ft | 21 kts | 223° |
| 2026-04-21 17:21 | 10.81484 | 106.65037 | 40 ft | 15 kts | 133° |
| 2026-04-21 17:21 | 10.81503 | 106.65129 | 36 ft | 15 kts | 70° |
| 2026-04-21 17:22 | 10.81529 | 106.65198 | 38 ft | 16 kts | 68° |
| 2026-04-21 17:22 | 10.81587 | 106.65347 | 35 ft | 18 kts | 68° |
| 2026-04-21 17:22 | 10.81560 | 106.65429 | 35 ft | 13 kts | 162° |
| 2026-04-21 17:22 | 10.81480 | 106.65457 | 37 ft | 12 kts | 160° |
| 2026-04-21 17:23 | 10.81400 | 106.65478 | 37 ft | 12 kts | 194° |
| 2026-04-21 17:23 | 10.81337 | 106.65481 | 37 ft | 6 kts | 157° |
| 2026-04-21 17:23 | 10.81325 | 106.65486 | 37 ft | 0 kts | 158° |